sensor_id;sensor_type;location;lat;lon;timestamp;P1;durP1;ratioP1;P2;durP2;ratioP2
24619;SDS011;12763;55.802;37.404;2024-01-25T00:00:37;27.55;;;10.60;;
24619;SDS011;12763;55.802;37.404;2024-01-25T00:03:03;32.00;;;10.93;;
24619;SDS011;12763;55.802;37.404;2024-01-25T00:05:29;32.78;;;10.98;;
24619;SDS011;12763;55.802;37.404;2024-01-25T00:07:56;21.00;;;9.63;;
24619;SDS011;12763;55.802;37.404;2024-01-25T00:10:22;35.58;;;12.00;;
24619;SDS011;12763;55.802;37.404;2024-01-25T00:12:48;29.90;;;11.40;;
24619;SDS011;12763;55.802;37.404;2024-01-25T00:15:14;33.65;;;11.57;;
24619;SDS011;12763;55.802;37.404;2024-01-25T00:17:40;32.28;;;11.07;;
24619;SDS011;12763;55.802;37.404;2024-01-25T00:20:09;28.23;;;11.65;;
24619;SDS011;12763;55.802;37.404;2024-01-25T00:22:36;25.98;;;10.20;;
24619;SDS011;12763;55.802;37.404;2024-01-25T00:25:03;26.67;;;10.93;;
24619;SDS011;12763;55.802;37.404;2024-01-25T00:27:29;28.17;;;11.65;;
24619;SDS011;12763;55.802;37.404;2024-01-25T00:29:58;34.40;;;12.00;;
24619;SDS011;12763;55.802;37.404;2024-01-25T00:32:24;35.50;;;12.00;;
24619;SDS011;12763;55.802;37.404;2024-01-25T00:34:50;26.95;;;10.63;;
24619;SDS011;12763;55.802;37.404;2024-01-25T00:37:16;29.65;;;10.18;;
24619;SDS011;12763;55.802;37.404;2024-01-25T00:39:43;30.80;;;11.32;;
24619;SDS011;12763;55.802;37.404;2024-01-25T00:42:09;31.83;;;12.75;;
24619;SDS011;12763;55.802;37.404;2024-01-25T00:44:40;27.92;;;11.48;;
24619;SDS011;12763;55.802;37.404;2024-01-25T00:47:06;32.75;;;11.88;;
24619;SDS011;12763;55.802;37.404;2024-01-25T00:49:32;29.60;;;11.88;;
24619;SDS011;12763;55.802;37.404;2024-01-25T00:51:59;31.75;;;11.90;;
24619;SDS011;12763;55.802;37.404;2024-01-25T00:54:25;35.95;;;12.45;;
24619;SDS011;12763;55.802;37.404;2024-01-25T00:56:52;31.52;;;10.15;;
24619;SDS011;12763;55.802;37.404;2024-01-25T00:59:19;31.75;;;11.90;;
24619;SDS011;12763;55.802;37.404;2024-01-25T01:01:46;32.10;;;11.65;;
24619;SDS011;12763;55.802;37.404;2024-01-25T01:04:14;39.88;;;13.02;;
24619;SDS011;12763;55.802;37.404;2024-01-25T01:06:40;31.15;;;12.48;;
24619;SDS011;12763;55.802;37.404;2024-01-25T01:09:07;29.92;;;12.15;;
24619;SDS011;12763;55.802;37.404;2024-01-25T01:11:33;34.90;;;12.48;;
24619;SDS011;12763;55.802;37.404;2024-01-25T01:13:59;33.83;;;12.70;;
24619;SDS011;12763;55.802;37.404;2024-01-25T01:16:25;32.67;;;12.23;;
24619;SDS011;12763;55.802;37.404;2024-01-25T01:18:51;35.45;;;12.32;;
24619;SDS011;12763;55.802;37.404;2024-01-25T01:21:17;35.05;;;13.77;;
24619;SDS011;12763;55.802;37.404;2024-01-25T01:23:43;30.67;;;12.38;;
24619;SDS011;12763;55.802;37.404;2024-01-25T01:26:09;35.88;;;11.90;;
24619;SDS011;12763;55.802;37.404;2024-01-25T01:28:36;32.20;;;11.82;;
24619;SDS011;12763;55.802;37.404;2024-01-25T01:31:02;30.83;;;11.90;;
24619;SDS011;12763;55.802;37.404;2024-01-25T01:33:28;34.45;;;12.88;;
24619;SDS011;12763;55.802;37.404;2024-01-25T01:35:54;28.85;;;12.90;;
24619;SDS011;12763;55.802;37.404;2024-01-25T01:38:20;28.10;;;11.65;;
24619;SDS011;12763;55.802;37.404;2024-01-25T01:40:45;26.33;;;10.18;;
24619;SDS011;12763;55.802;37.404;2024-01-25T01:43:21;34.03;;;12.05;;
24619;SDS011;12763;55.802;37.404;2024-01-25T01:45:48;30.67;;;10.27;;
24619;SDS011;12763;55.802;37.404;2024-01-25T01:48:16;31.42;;;11.65;;
24619;SDS011;12763;55.802;37.404;2024-01-25T01:50:42;28.52;;;11.55;;
24619;SDS011;12763;55.802;37.404;2024-01-25T01:53:10;30.63;;;12.13;;
24619;SDS011;12763;55.802;37.404;2024-01-25T01:55:36;24.70;;;10.75;;
24619;SDS011;12763;55.802;37.404;2024-01-25T01:58:03;25.15;;;9.23;;
24619;SDS011;12763;55.802;37.404;2024-01-25T02:00:30;27.73;;;9.73;;
24619;SDS011;12763;55.802;37.404;2024-01-25T02:02:59;26.88;;;9.25;;
24619;SDS011;12763;55.802;37.404;2024-01-25T02:05:26;23.98;;;9.23;;
24619;SDS011;12763;55.802;37.404;2024-01-25T02:07:52;25.73;;;10.27;;
24619;SDS011;12763;55.802;37.404;2024-01-25T02:10:19;29.92;;;11.93;;
24619;SDS011;12763;55.802;37.404;2024-01-25T02:12:45;23.73;;;9.77;;
24619;SDS011;12763;55.802;37.404;2024-01-25T02:15:11;25.90;;;9.18;;
24619;SDS011;12763;55.802;37.404;2024-01-25T02:17:37;19.40;;;8.77;;
24619;SDS011;12763;55.802;37.404;2024-01-25T02:20:04;23.83;;;9.32;;
24619;SDS011;12763;55.802;37.404;2024-01-25T02:22:30;22.73;;;9.45;;
24619;SDS011;12763;55.802;37.404;2024-01-25T02:24:56;24.60;;;9.23;;
24619;SDS011;12763;55.802;37.404;2024-01-25T02:27:22;26.38;;;9.45;;
24619;SDS011;12763;55.802;37.404;2024-01-25T02:29:48;24.05;;;8.98;;
24619;SDS011;12763;55.802;37.404;2024-01-25T02:32:14;22.52;;;9.68;;
24619;SDS011;12763;55.802;37.404;2024-01-25T02:34:40;19.92;;;9.60;;
24619;SDS011;12763;55.802;37.404;2024-01-25T02:37:06;22.85;;;8.90;;
24619;SDS011;12763;55.802;37.404;2024-01-25T02:39:31;24.00;;;9.50;;
24619;SDS011;12763;55.802;37.404;2024-01-25T02:41:57;21.45;;;8.75;;
24619;SDS011;12763;55.802;37.404;2024-01-25T02:44:23;19.63;;;8.35;;
24619;SDS011;12763;55.802;37.404;2024-01-25T02:46:49;20.65;;;9.13;;
24619;SDS011;12763;55.802;37.404;2024-01-25T02:49:15;25.30;;;9.85;;
24619;SDS011;12763;55.802;37.404;2024-01-25T02:51:41;22.50;;;8.80;;
24619;SDS011;12763;55.802;37.404;2024-01-25T02:54:07;20.67;;;7.95;;
24619;SDS011;12763;55.802;37.404;2024-01-25T02:56:33;23.50;;;9.25;;
24619;SDS011;12763;55.802;37.404;2024-01-25T02:59:01;20.95;;;9.30;;
24619;SDS011;12763;55.802;37.404;2024-01-25T03:01:27;19.55;;;8.65;;
24619;SDS011;12763;55.802;37.404;2024-01-25T03:03:53;19.55;;;8.82;;
24619;SDS011;12763;55.802;37.404;2024-01-25T03:06:19;25.08;;;9.35;;
24619;SDS011;12763;55.802;37.404;2024-01-25T03:08:45;20.98;;;8.82;;
24619;SDS011;12763;55.802;37.404;2024-01-25T03:11:11;21.58;;;9.27;;
24619;SDS011;12763;55.802;37.404;2024-01-25T03:13:37;21.90;;;8.07;;
24619;SDS011;12763;55.802;37.404;2024-01-25T03:16:03;23.67;;;8.43;;
24619;SDS011;12763;55.802;37.404;2024-01-25T03:18:30;18.70;;;8.40;;
24619;SDS011;12763;55.802;37.404;2024-01-25T03:20:56;20.45;;;8.07;;
24619;SDS011;12763;55.802;37.404;2024-01-25T03:23:21;19.13;;;8.45;;
24619;SDS011;12763;55.802;37.404;2024-01-25T03:25:47;21.88;;;8.23;;
24619;SDS011;12763;55.802;37.404;2024-01-25T03:28:13;18.33;;;7.60;;
24619;SDS011;12763;55.802;37.404;2024-01-25T03:30:41;20.25;;;9.07;;
24619;SDS011;12763;55.802;37.404;2024-01-25T03:33:07;19.88;;;8.73;;
24619;SDS011;12763;55.802;37.404;2024-01-25T03:35:33;18.92;;;7.60;;
24619;SDS011;12763;55.802;37.404;2024-01-25T03:37:59;21.98;;;8.32;;
24619;SDS011;12763;55.802;37.404;2024-01-25T03:40:25;20.80;;;7.35;;
24619;SDS011;12763;55.802;37.404;2024-01-25T03:42:51;20.35;;;9.15;;
24619;SDS011;12763;55.802;37.404;2024-01-25T03:45:17;21.10;;;8.63;;
24619;SDS011;12763;55.802;37.404;2024-01-25T03:47:43;24.40;;;9.07;;
24619;SDS011;12763;55.802;37.404;2024-01-25T03:50:09;18.50;;;8.45;;
24619;SDS011;12763;55.802;37.404;2024-01-25T03:52:35;18.33;;;7.75;;
24619;SDS011;12763;55.802;37.404;2024-01-25T03:55:01;21.75;;;8.73;;
24619;SDS011;12763;55.802;37.404;2024-01-25T03:57:28;21.95;;;8.30;;
24619;SDS011;12763;55.802;37.404;2024-01-25T03:59:54;23.83;;;8.60;;
24619;SDS011;12763;55.802;37.404;2024-01-25T04:02:20;21.58;;;8.18;;
24619;SDS011;12763;55.802;37.404;2024-01-25T04:04:46;19.73;;;8.30;;
24619;SDS011;12763;55.802;37.404;2024-01-25T04:07:12;17.48;;;7.63;;
24619;SDS011;12763;55.802;37.404;2024-01-25T04:09:38;14.75;;;6.88;;
24619;SDS011;12763;55.802;37.404;2024-01-25T04:12:05;20.58;;;8.52;;
24619;SDS011;12763;55.802;37.404;2024-01-25T04:14:31;18.98;;;7.22;;
24619;SDS011;12763;55.802;37.404;2024-01-25T04:16:57;20.33;;;8.13;;
24619;SDS011;12763;55.802;37.404;2024-01-25T04:19:24;19.25;;;7.32;;
24619;SDS011;12763;55.802;37.404;2024-01-25T04:21:50;19.42;;;7.35;;
24619;SDS011;12763;55.802;37.404;2024-01-25T04:24:16;18.95;;;7.40;;
24619;SDS011;12763;55.802;37.404;2024-01-25T04:26:42;18.58;;;7.80;;
24619;SDS011;12763;55.802;37.404;2024-01-25T04:29:08;23.40;;;7.72;;
24619;SDS011;12763;55.802;37.404;2024-01-25T04:31:34;16.17;;;6.75;;
24619;SDS011;12763;55.802;37.404;2024-01-25T04:33:59;16.40;;;7.20;;
24619;SDS011;12763;55.802;37.404;2024-01-25T04:36:25;17.55;;;7.20;;
24619;SDS011;12763;55.802;37.404;2024-01-25T04:38:51;14.20;;;6.72;;
24619;SDS011;12763;55.802;37.404;2024-01-25T04:41:17;15.05;;;6.40;;
24619;SDS011;12763;55.802;37.404;2024-01-25T04:43:43;21.25;;;7.47;;
24619;SDS011;12763;55.802;37.404;2024-01-25T04:46:10;21.50;;;7.00;;
24619;SDS011;12763;55.802;37.404;2024-01-25T04:48:36;17.42;;;7.72;;
24619;SDS011;12763;55.802;37.404;2024-01-25T04:51:02;19.17;;;7.50;;
24619;SDS011;12763;55.802;37.404;2024-01-25T04:53:28;19.23;;;7.72;;
24619;SDS011;12763;55.802;37.404;2024-01-25T04:55:54;15.52;;;6.95;;
24619;SDS011;12763;55.802;37.404;2024-01-25T04:58:20;14.52;;;6.18;;
24619;SDS011;12763;55.802;37.404;2024-01-25T05:00:46;16.98;;;6.97;;
24619;SDS011;12763;55.802;37.404;2024-01-25T05:03:12;17.75;;;7.43;;
24619;SDS011;12763;55.802;37.404;2024-01-25T05:05:38;18.42;;;7.68;;
24619;SDS011;12763;55.802;37.404;2024-01-25T05:08:04;16.02;;;6.97;;
24619;SDS011;12763;55.802;37.404;2024-01-25T05:10:30;16.77;;;7.30;;
24619;SDS011;12763;55.802;37.404;2024-01-25T05:12:56;20.85;;;7.28;;
24619;SDS011;12763;55.802;37.404;2024-01-25T05:15:22;18.83;;;7.07;;
24619;SDS011;12763;55.802;37.404;2024-01-25T05:17:48;17.15;;;6.38;;
24619;SDS011;12763;55.802;37.404;2024-01-25T05:20:14;17.92;;;6.88;;
24619;SDS011;12763;55.802;37.404;2024-01-25T05:22:42;18.20;;;7.30;;
24619;SDS011;12763;55.802;37.404;2024-01-25T05:25:08;17.15;;;6.65;;
24619;SDS011;12763;55.802;37.404;2024-01-25T05:27:35;15.73;;;7.25;;
24619;SDS011;12763;55.802;37.404;2024-01-25T05:30:01;17.70;;;6.75;;
24619;SDS011;12763;55.802;37.404;2024-01-25T05:32:29;19.75;;;7.45;;
24619;SDS011;12763;55.802;37.404;2024-01-25T05:34:56;15.60;;;7.25;;
24619;SDS011;12763;55.802;37.404;2024-01-25T05:37:21;16.65;;;7.35;;
24619;SDS011;12763;55.802;37.404;2024-01-25T05:39:47;14.15;;;7.05;;
24619;SDS011;12763;55.802;37.404;2024-01-25T05:42:14;22.48;;;6.95;;
24619;SDS011;12763;55.802;37.404;2024-01-25T05:44:40;14.13;;;6.82;;
24619;SDS011;12763;55.802;37.404;2024-01-25T05:47:05;16.48;;;6.82;;
24619;SDS011;12763;55.802;37.404;2024-01-25T05:49:31;15.23;;;6.90;;
24619;SDS011;12763;55.802;37.404;2024-01-25T05:51:57;17.38;;;8.52;;
24619;SDS011;12763;55.802;37.404;2024-01-25T05:54:23;16.77;;;6.75;;
24619;SDS011;12763;55.802;37.404;2024-01-25T05:56:49;24.83;;;9.07;;
24619;SDS011;12763;55.802;37.404;2024-01-25T05:59:15;17.23;;;7.55;;
24619;SDS011;12763;55.802;37.404;2024-01-25T06:01:41;19.38;;;8.30;;
24619;SDS011;12763;55.802;37.404;2024-01-25T06:04:07;17.73;;;8.35;;
24619;SDS011;12763;55.802;37.404;2024-01-25T06:06:32;17.13;;;7.50;;
24619;SDS011;12763;55.802;37.404;2024-01-25T06:08:58;18.30;;;7.50;;
24619;SDS011;12763;55.802;37.404;2024-01-25T06:11:24;17.58;;;7.53;;
24619;SDS011;12763;55.802;37.404;2024-01-25T06:13:50;18.85;;;7.78;;
24619;SDS011;12763;55.802;37.404;2024-01-25T06:16:16;16.98;;;7.50;;
24619;SDS011;12763;55.802;37.404;2024-01-25T06:18:42;24.10;;;8.02;;
24619;SDS011;12763;55.802;37.404;2024-01-25T06:21:08;21.55;;;8.10;;
24619;SDS011;12763;55.802;37.404;2024-01-25T06:23:34;19.45;;;7.97;;
24619;SDS011;12763;55.802;37.404;2024-01-25T06:26:00;22.20;;;7.97;;
24619;SDS011;12763;55.802;37.404;2024-01-25T06:28:26;20.13;;;8.50;;
24619;SDS011;12763;55.802;37.404;2024-01-25T06:30:52;18.85;;;8.32;;
24619;SDS011;12763;55.802;37.404;2024-01-25T06:33:18;19.30;;;8.13;;
24619;SDS011;12763;55.802;37.404;2024-01-25T06:35:44;22.60;;;8.60;;
24619;SDS011;12763;55.802;37.404;2024-01-25T06:38:10;15.95;;;7.03;;
24619;SDS011;12763;55.802;37.404;2024-01-25T06:40:36;15.88;;;7.03;;
24619;SDS011;12763;55.802;37.404;2024-01-25T06:43:02;18.55;;;7.85;;
24619;SDS011;12763;55.802;37.404;2024-01-25T06:45:29;19.50;;;7.63;;
24619;SDS011;12763;55.802;37.404;2024-01-25T06:47:55;18.17;;;7.55;;
24619;SDS011;12763;55.802;37.404;2024-01-25T06:50:21;18.45;;;8.15;;
24619;SDS011;12763;55.802;37.404;2024-01-25T06:52:47;17.40;;;7.40;;
24619;SDS011;12763;55.802;37.404;2024-01-25T06:55:13;20.75;;;8.23;;
24619;SDS011;12763;55.802;37.404;2024-01-25T06:57:39;15.32;;;7.03;;
24619;SDS011;12763;55.802;37.404;2024-01-25T07:00:05;17.23;;;8.00;;
24619;SDS011;12763;55.802;37.404;2024-01-25T07:02:32;18.77;;;8.23;;
24619;SDS011;12763;55.802;37.404;2024-01-25T07:04:57;17.27;;;8.07;;
24619;SDS011;12763;55.802;37.404;2024-01-25T07:07:23;16.88;;;8.18;;
24619;SDS011;12763;55.802;37.404;2024-01-25T07:09:49;23.20;;;8.00;;
24619;SDS011;12763;55.802;37.404;2024-01-25T07:12:15;20.98;;;7.90;;
24619;SDS011;12763;55.802;37.404;2024-01-25T07:14:41;21.40;;;8.90;;
24619;SDS011;12763;55.802;37.404;2024-01-25T07:17:07;17.65;;;8.40;;
24619;SDS011;12763;55.802;37.404;2024-01-25T07:19:33;19.80;;;8.73;;
24619;SDS011;12763;55.802;37.404;2024-01-25T07:21:59;19.13;;;7.78;;
24619;SDS011;12763;55.802;37.404;2024-01-25T07:24:25;24.65;;;9.38;;
24619;SDS011;12763;55.802;37.404;2024-01-25T07:26:52;23.85;;;9.98;;
24619;SDS011;12763;55.802;37.404;2024-01-25T07:29:18;18.75;;;8.75;;
24619;SDS011;12763;55.802;37.404;2024-01-25T07:31:44;21.67;;;9.70;;
24619;SDS011;12763;55.802;37.404;2024-01-25T07:34:10;21.60;;;8.98;;
24619;SDS011;12763;55.802;37.404;2024-01-25T07:36:35;20.42;;;9.57;;
24619;SDS011;12763;55.802;37.404;2024-01-25T07:39:01;22.02;;;8.80;;
24619;SDS011;12763;55.802;37.404;2024-01-25T07:41:28;23.58;;;9.57;;
24619;SDS011;12763;55.802;37.404;2024-01-25T07:43:53;22.45;;;9.98;;
24619;SDS011;12763;55.802;37.404;2024-01-25T07:46:21;21.20;;;8.23;;
24619;SDS011;12763;55.802;37.404;2024-01-25T07:48:49;24.27;;;9.43;;
24619;SDS011;12763;55.802;37.404;2024-01-25T07:51:15;19.75;;;8.68;;
24619;SDS011;12763;55.802;37.404;2024-01-25T07:53:41;17.48;;;7.95;;
24619;SDS011;12763;55.802;37.404;2024-01-25T07:56:07;23.13;;;8.13;;
24619;SDS011;12763;55.802;37.404;2024-01-25T07:58:35;17.92;;;7.80;;
24619;SDS011;12763;55.802;37.404;2024-01-25T08:01:05;22.63;;;9.13;;
24619;SDS011;12763;55.802;37.404;2024-01-25T08:03:31;20.40;;;9.20;;
24619;SDS011;12763;55.802;37.404;2024-01-25T08:05:59;18.02;;;7.80;;
24619;SDS011;12763;55.802;37.404;2024-01-25T08:08:25;18.17;;;7.80;;
24619;SDS011;12763;55.802;37.404;2024-01-25T08:10:51;18.13;;;8.63;;
24619;SDS011;12763;55.802;37.404;2024-01-25T08:13:17;16.73;;;7.65;;
24619;SDS011;12763;55.802;37.404;2024-01-25T08:15:43;17.27;;;7.82;;
24619;SDS011;12763;55.802;37.404;2024-01-25T08:18:09;18.65;;;8.35;;
24619;SDS011;12763;55.802;37.404;2024-01-25T08:20:36;18.23;;;8.05;;
24619;SDS011;12763;55.802;37.404;2024-01-25T08:23:03;18.83;;;8.50;;
24619;SDS011;12763;55.802;37.404;2024-01-25T08:25:29;17.48;;;8.10;;
24619;SDS011;12763;55.802;37.404;2024-01-25T08:27:55;19.00;;;7.25;;
24619;SDS011;12763;55.802;37.404;2024-01-25T08:30:21;18.75;;;7.78;;
24619;SDS011;12763;55.802;37.404;2024-01-25T08:32:47;20.48;;;8.50;;
24619;SDS011;12763;55.802;37.404;2024-01-25T08:35:13;19.38;;;8.18;;
24619;SDS011;12763;55.802;37.404;2024-01-25T08:37:39;16.63;;;7.40;;
24619;SDS011;12763;55.802;37.404;2024-01-25T08:40:05;22.13;;;9.05;;
24619;SDS011;12763;55.802;37.404;2024-01-25T08:42:32;33.30;;;8.90;;
24619;SDS011;12763;55.802;37.404;2024-01-25T08:44:58;19.67;;;8.43;;
24619;SDS011;12763;55.802;37.404;2024-01-25T08:47:24;21.98;;;9.20;;
24619;SDS011;12763;55.802;37.404;2024-01-25T08:49:50;22.02;;;9.18;;
24619;SDS011;12763;55.802;37.404;2024-01-25T08:52:16;19.55;;;9.25;;
24619;SDS011;12763;55.802;37.404;2024-01-25T08:54:42;25.10;;;9.85;;
24619;SDS011;12763;55.802;37.404;2024-01-25T08:57:08;26.77;;;9.88;;
24619;SDS011;12763;55.802;37.404;2024-01-25T08:59:34;22.27;;;8.73;;
24619;SDS011;12763;55.802;37.404;2024-01-25T09:02:03;19.02;;;8.35;;
24619;SDS011;12763;55.802;37.404;2024-01-25T09:04:31;22.23;;;8.38;;
24619;SDS011;12763;55.802;37.404;2024-01-25T09:06:58;18.23;;;8.65;;
24619;SDS011;12763;55.802;37.404;2024-01-25T09:09:25;18.98;;;9.10;;
24619;SDS011;12763;55.802;37.404;2024-01-25T09:11:51;18.85;;;8.70;;
24619;SDS011;12763;55.802;37.404;2024-01-25T09:14:17;20.70;;;8.18;;
24619;SDS011;12763;55.802;37.404;2024-01-25T09:16:43;18.30;;;7.80;;
24619;SDS011;12763;55.802;37.404;2024-01-25T09:19:09;19.55;;;7.30;;
24619;SDS011;12763;55.802;37.404;2024-01-25T09:21:38;18.35;;;8.02;;
24619;SDS011;12763;55.802;37.404;2024-01-25T09:24:05;22.92;;;8.35;;
24619;SDS011;12763;55.802;37.404;2024-01-25T09:26:32;17.60;;;8.82;;
24619;SDS011;12763;55.802;37.404;2024-01-25T09:28:58;26.20;;;8.77;;
24619;SDS011;12763;55.802;37.404;2024-01-25T09:31:25;22.02;;;8.50;;
24619;SDS011;12763;55.802;37.404;2024-01-25T09:33:51;16.38;;;7.75;;
24619;SDS011;12763;55.802;37.404;2024-01-25T09:36:17;19.13;;;8.35;;
24619;SDS011;12763;55.802;37.404;2024-01-25T09:38:43;19.60;;;8.37;;
24619;SDS011;12763;55.802;37.404;2024-01-25T09:41:09;18.73;;;8.10;;
24619;SDS011;12763;55.802;37.404;2024-01-25T09:43:35;18.63;;;7.63;;
24619;SDS011;12763;55.802;37.404;2024-01-25T09:46:02;19.33;;;8.55;;
24619;SDS011;12763;55.802;37.404;2024-01-25T09:48:31;15.30;;;7.32;;
24619;SDS011;12763;55.802;37.404;2024-01-25T09:50:57;21.35;;;8.00;;
24619;SDS011;12763;55.802;37.404;2024-01-25T09:53:25;20.23;;;9.00;;
24619;SDS011;12763;55.802;37.404;2024-01-25T09:55:58;18.02;;;7.65;;
24619;SDS011;12763;55.802;37.404;2024-01-25T09:58:34;18.73;;;7.80;;
24619;SDS011;12763;55.802;37.404;2024-01-25T10:01:03;17.00;;;6.80;;
24619;SDS011;12763;55.802;37.404;2024-01-25T10:03:30;16.45;;;7.95;;
24619;SDS011;12763;55.802;37.404;2024-01-25T10:05:56;18.67;;;7.40;;
24619;SDS011;12763;55.802;37.404;2024-01-25T10:08:22;21.38;;;8.90;;
24619;SDS011;12763;55.802;37.404;2024-01-25T10:10:49;21.45;;;9.02;;
24619;SDS011;12763;55.802;37.404;2024-01-25T10:13:15;19.15;;;8.13;;
24619;SDS011;12763;55.802;37.404;2024-01-25T21:41:26;58.00;;;20.92;;
24619;SDS011;12763;55.802;37.404;2024-01-25T21:43:52;59.88;;;20.65;;
24619;SDS011;12763;55.802;37.404;2024-01-25T21:46:18;57.40;;;19.75;;
24619;SDS011;12763;55.802;37.404;2024-01-25T21:48:44;57.80;;;21.42;;
24619;SDS011;12763;55.802;37.404;2024-01-25T21:51:13;54.90;;;19.88;;
24619;SDS011;12763;55.802;37.404;2024-01-25T21:53:39;53.22;;;19.55;;
24619;SDS011;12763;55.802;37.404;2024-01-25T21:56:05;49.67;;;20.15;;
24619;SDS011;12763;55.802;37.404;2024-01-25T21:58:31;54.45;;;19.45;;
24619;SDS011;12763;55.802;37.404;2024-01-25T22:00:57;48.88;;;19.58;;
24619;SDS011;12763;55.802;37.404;2024-01-25T22:03:23;56.88;;;20.10;;
24619;SDS011;12763;55.802;37.404;2024-01-25T22:05:49;45.25;;;18.33;;
24619;SDS011;12763;55.802;37.404;2024-01-25T22:08:15;53.10;;;21.23;;
24619;SDS011;12763;55.802;37.404;2024-01-25T22:10:41;50.55;;;20.13;;
24619;SDS011;12763;55.802;37.404;2024-01-25T22:13:07;51.03;;;19.58;;
24619;SDS011;12763;55.802;37.404;2024-01-25T22:15:33;52.45;;;20.15;;
24619;SDS011;12763;55.802;37.404;2024-01-25T22:17:59;48.08;;;18.38;;
24619;SDS011;12763;55.802;37.404;2024-01-25T22:20:25;50.33;;;19.55;;
24619;SDS011;12763;55.802;37.404;2024-01-25T22:22:51;49.63;;;19.30;;
24619;SDS011;12763;55.802;37.404;2024-01-25T22:25:17;46.33;;;19.65;;
24619;SDS011;12763;55.802;37.404;2024-01-25T22:30:28;50.67;;;19.17;;
24619;SDS011;12763;55.802;37.404;2024-01-25T22:32:54;45.75;;;18.10;;
24619;SDS011;12763;55.802;37.404;2024-01-25T22:35:20;48.03;;;19.77;;
24619;SDS011;12763;55.802;37.404;2024-01-25T22:37:46;50.05;;;19.33;;
24619;SDS011;12763;55.802;37.404;2024-01-25T22:40:12;57.25;;;22.88;;
24619;SDS011;12763;55.802;37.404;2024-01-25T22:42:38;48.13;;;20.67;;
24619;SDS011;12763;55.802;37.404;2024-01-25T22:45:04;51.75;;;19.40;;
24619;SDS011;12763;55.802;37.404;2024-01-25T22:47:31;48.67;;;21.13;;
24619;SDS011;12763;55.802;37.404;2024-01-25T22:49:57;48.85;;;19.25;;
24619;SDS011;12763;55.802;37.404;2024-01-25T22:52:23;49.03;;;18.70;;
24619;SDS011;12763;55.802;37.404;2024-01-25T22:54:49;54.60;;;20.42;;
24619;SDS011;12763;55.802;37.404;2024-01-25T22:57:15;56.58;;;21.67;;
24619;SDS011;12763;55.802;37.404;2024-01-25T22:59:41;56.97;;;21.58;;
24619;SDS011;12763;55.802;37.404;2024-01-25T23:02:07;52.65;;;20.38;;
24619;SDS011;12763;55.802;37.404;2024-01-25T23:04:32;48.40;;;19.92;;
24619;SDS011;12763;55.802;37.404;2024-01-25T23:06:58;48.92;;;19.75;;
24619;SDS011;12763;55.802;37.404;2024-01-25T23:09:24;47.55;;;20.27;;
24619;SDS011;12763;55.802;37.404;2024-01-25T23:11:50;44.67;;;19.67;;
24619;SDS011;12763;55.802;37.404;2024-01-25T23:14:16;54.03;;;20.65;;
24619;SDS011;12763;55.802;37.404;2024-01-25T23:16:42;49.60;;;20.10;;
24619;SDS011;12763;55.802;37.404;2024-01-25T23:19:08;51.40;;;20.45;;
24619;SDS011;12763;55.802;37.404;2024-01-25T23:21:34;56.75;;;21.27;;
24619;SDS011;12763;55.802;37.404;2024-01-25T23:24:00;59.33;;;21.40;;
24619;SDS011;12763;55.802;37.404;2024-01-25T23:26:26;52.60;;;19.73;;
24619;SDS011;12763;55.802;37.404;2024-01-25T23:28:52;51.15;;;20.38;;
24619;SDS011;12763;55.802;37.404;2024-01-25T23:31:18;49.55;;;19.88;;
24619;SDS011;12763;55.802;37.404;2024-01-25T23:33:44;52.58;;;19.48;;
24619;SDS011;12763;55.802;37.404;2024-01-25T23:36:10;51.28;;;19.73;;
24619;SDS011;12763;55.802;37.404;2024-01-25T23:38:36;54.22;;;19.67;;
24619;SDS011;12763;55.802;37.404;2024-01-25T23:41:03;52.95;;;19.85;;
24619;SDS011;12763;55.802;37.404;2024-01-25T23:43:29;53.55;;;19.98;;
24619;SDS011;12763;55.802;37.404;2024-01-25T23:45:55;52.35;;;21.67;;
24619;SDS011;12763;55.802;37.404;2024-01-25T23:48:21;50.90;;;20.70;;
24619;SDS011;12763;55.802;37.404;2024-01-25T23:50:47;49.90;;;18.88;;
24619;SDS011;12763;55.802;37.404;2024-01-25T23:53:13;61.08;;;19.52;;
24619;SDS011;12763;55.802;37.404;2024-01-25T23:55:38;46.17;;;19.90;;
24619;SDS011;12763;55.802;37.404;2024-01-25T23:58:04;52.72;;;20.20;;
